Flamengo — HPMX — position and weather

sailwx.info

Track history (hours):
 
Tides and Currents Weather Stations Pressure Air Temp Water Temp Dewpoint Dewpoint Depression Visibility Wind Speed Wind Dir Waves Ship Positions

Flamengo

Last reported at 2017-Dec-22 18:14 UTC. Time now 2018-Jan-23 06:26 UTC.
Position N 33°27' E 034°21'.
Warning: this ship's position is 31 days out of date.

Length 119 m; draft 4.9 m.

Type: Tanker. MMSI: 355960000.

Date/timePositionNaut miles runAvg speedWind from/ knotsBaromVisibWave heightAir tempDewpointWater temp
2017-Dec-22 18:14N 33°27' E 034°21'315.2
2017-Dec-22 18:00N 33°24' E 034°20'914.9
2017-Dec-22 17:24N 33°15' E 034°16'615.2
2017-Dec-22 17:00N 33°10' E 034°14'815.0
2017-Dec-22 16:30N 33°02' E 034°11'815.4
2017-Dec-22 15:59N 32°55' E 034°08'1115.1
2017-Dec-22 15:16N 32°45' E 034°04'515.0
2017-Dec-22 14:56N 32°40' E 034°02'1314.4
2017-Dec-22 14:00N 32°27' E 033°60'714.8
2017-Dec-22 13:30N 32°19' E 034°01'814.9
2017-Dec-22 12:59N 32°12' E 034°01'714.6
2017-Dec-22 12:30N 32°05' E 034°02'1014.1
2017-Dec-22 11:49N 31°59' E 034°11'  
Track history (hours):
 
Tides and Currents Weather Stations Pressure Air Temp Water Temp Dewpoint Dewpoint Depression Visibility Wind Speed Wind Dir Waves Ship Positions

Flamengo

Last reported at 2017-Dec-22 18:14 UTC. Time now 2018-Jan-23 06:26 UTC.
Position N 33°27' E 034°21'.
Warning: this ship's position is 31 days out of date.

Length 119 m; draft 4.9 m.

Type: Tanker. MMSI: 355960000.

Date/timePositionNaut miles runAvg speedWind from/ knotsBaromVisibWave heightAir tempDewpointWater temp
2017-Dec-22 18:14N 33°27' E 034°21'315.2
2017-Dec-22 18:00N 33°24' E 034°20'914.9
2017-Dec-22 17:24N 33°15' E 034°16'615.2
2017-Dec-22 17:00N 33°10' E 034°14'815.0
2017-Dec-22 16:30N 33°02' E 034°11'815.4
2017-Dec-22 15:59N 32°55' E 034°08'1115.1
2017-Dec-22 15:16N 32°45' E 034°04'515.0
2017-Dec-22 14:56N 32°40' E 034°02'1314.4
2017-Dec-22 14:00N 32°27' E 033°60'714.8
2017-Dec-22 13:30N 32°19' E 034°01'814.9
2017-Dec-22 12:59N 32°12' E 034°01'714.6
2017-Dec-22 12:30N 32°05' E 034°02'1014.1
2017-Dec-22 11:49N 31°59' E 034°11'  

Dump ship's entire track history